createdAt,value
2019-05-03T00:01:52.730Z,101196.91
2019-05-03T00:04:22.648Z,101197.90
2019-05-03T00:06:52.768Z,101196.02
2019-05-03T00:09:24.845Z,101194.36
2019-05-03T00:11:55.640Z,101196.15
2019-05-03T00:14:25.892Z,101195.16
2019-05-03T00:16:58.034Z,101197.84
2019-05-03T00:19:32.717Z,101195.41
2019-05-03T00:22:06.770Z,101197.55
2019-05-03T00:24:42.430Z,101189.75
2019-05-03T00:27:14.648Z,101191.73
2019-05-03T00:29:44.835Z,101198.61
2019-05-03T00:32:18.230Z,101196.42
2019-05-03T00:34:52.039Z,101194.23
2019-05-03T00:37:26.669Z,101198.41
2019-05-03T00:40:08.249Z,101200.10
2019-05-03T00:42:42.400Z,101201.65
2019-05-03T00:45:12.653Z,101203.89
2019-05-03T00:47:50.481Z,101207.52
2019-05-03T00:50:22.457Z,101207.77
2019-05-03T00:52:51.937Z,101217.02
2019-05-03T00:55:22.248Z,101212.14
2019-05-03T00:57:52.250Z,101216.03
2019-05-03T01:00:22.821Z,101211.89
2019-05-03T01:02:52.918Z,101213.48
2019-05-03T01:05:23.635Z,101219.09
2019-05-03T01:07:53.300Z,101219.45
2019-05-03T01:10:23.387Z,101222.23
2019-05-03T01:12:57.656Z,101225.77
2019-05-03T01:15:36.607Z,101234.18
2019-05-03T01:18:08.055Z,101237.91
2019-05-03T01:20:37.914Z,101240.50
2019-05-03T01:23:08.710Z,101241.89
2019-05-03T01:25:38.650Z,101241.66
2019-05-03T01:28:09.884Z,101248.77
2019-05-03T01:30:39.570Z,101246.81
2019-05-03T01:33:12.015Z,101250.20
2019-05-03T01:35:42.801Z,101251.80
2019-05-03T01:38:12.497Z,101248.67
2019-05-03T01:40:42.283Z,101244.89
2019-05-03T01:43:12.059Z,101250.65
2019-05-03T01:45:44.263Z,101243.55
2019-05-03T01:48:36.788Z,101237.22
2019-05-03T01:51:38.095Z,101234.13
2019-05-03T01:54:08.513Z,101222.55
2019-05-03T01:56:58.730Z,101214.61
2019-05-03T01:59:24.111Z,101213.04
2019-05-03T02:02:13.375Z,101215.83
2019-05-03T02:04:47.070Z,101219.71
2019-05-03T02:07:26.103Z,101219.56
2019-05-03T02:09:57.889Z,101203.38
2019-05-03T02:12:29.256Z,101200.55
2019-05-03T02:14:59.325Z,101182.80
2019-05-03T02:17:33.419Z,101179.10
2019-05-03T02:20:04.644Z,101180.16
2019-05-03T02:22:36.103Z,101180.84
2019-05-03T02:25:07.419Z,101192.67
2019-05-03T02:27:37.196Z,101195.85
2019-05-03T02:30:08.415Z,101194.36
2019-05-03T02:32:38.272Z,101193.02
2019-05-03T02:35:07.884Z,101189.19
2019-05-03T02:37:39.814Z,101185.89
2019-05-03T02:40:13.126Z,101188.53
2019-05-03T02:42:46.514Z,101199.22
2019-05-03T02:45:25.925Z,101191.86
2019-05-03T02:48:07.811Z,101186.13
2019-05-03T02:50:38.117Z,101187.62
2019-05-03T02:53:09.437Z,101182.45
2019-05-03T02:55:40.983Z,101168.39
2019-05-03T02:58:11.978Z,101174.84
2019-05-03T03:01:00.046Z,101174.55
2019-05-03T03:03:45.465Z,101167.07
2019-05-03T03:06:38.849Z,101179.75
2019-05-03T03:10:01.049Z,101186.09
2019-05-03T03:13:16.482Z,101189.08
2019-05-03T03:15:57.029Z,101191.19
2019-05-03T03:18:51.500Z,101186.39
2019-05-03T03:21:26.024Z,101181.02
2019-05-03T03:24:06.272Z,101173.30
2019-05-03T03:26:42.948Z,101165.31
2019-05-03T03:29:11.822Z,101161.63
2019-05-03T03:31:58.364Z,101160.37
2019-05-03T03:34:32.393Z,101161.64
2019-05-03T03:37:08.877Z,101164.60
2019-05-03T03:39:36.341Z,101164.83
2019-05-03T03:42:06.470Z,101162.08
2019-05-03T03:44:36.909Z,101158.97
2019-05-03T03:47:07.656Z,101159.05
2019-05-03T03:49:40.601Z,101155.20
2019-05-03T03:52:15.995Z,101147.14
2019-05-03T03:55:07.947Z,101139.72
2019-05-03T03:57:38.797Z,101138.30
2019-05-03T04:00:10.387Z,101130.95
2019-05-03T04:02:41.115Z,101138.03
2019-05-03T04:05:10.868Z,101144.45
2019-05-03T04:07:40.744Z,101134.53
2019-05-03T04:10:15.546Z,101137.03
2019-05-03T04:12:45.698Z,101144.45
2019-05-03T04:15:48.585Z,101132.77
2019-05-03T04:18:45.983Z,101145.75
2019-05-03T04:21:16.270Z,101137.18
2019-05-03T04:23:48.151Z,101139.72
2019-05-03T04:26:18.250Z,101140.91
2019-05-03T04:28:51.822Z,101147.29
2019-05-03T04:31:21.523Z,101142.83
2019-05-03T04:33:51.122Z,101135.67
2019-05-03T04:36:21.585Z,101130.03
2019-05-03T04:38:52.294Z,101134.11
2019-05-03T04:41:22.258Z,101138.03
2019-05-03T04:43:51.878Z,101133.34
2019-05-03T04:46:25.835Z,101132.50
2019-05-03T04:48:56.328Z,101130.30
2019-05-03T04:51:26.356Z,101137.45
2019-05-03T04:54:16.402Z,101140.48
2019-05-03T04:56:46.917Z,101141.72
2019-05-03T04:59:17.361Z,101148.36
2019-05-03T05:01:47.017Z,101157.47
2019-05-03T05:04:25.239Z,101163.84
2019-05-03T05:06:57.750Z,101169.30
2019-05-03T05:09:27.569Z,101171.04
2019-05-03T05:11:59.581Z,101169.17
2019-05-03T05:14:29.317Z,101174.12
2019-05-03T05:17:05.865Z,101181.69
2019-05-03T05:19:41.596Z,101186.22
2019-05-03T05:22:20.404Z,101194.28
2019-05-03T05:25:04.656Z,101206.29
2019-05-03T05:27:49.399Z,101204.25
2019-05-03T05:33:25.326Z,101210.53
2019-05-03T05:35:56.821Z,101210.53
2019-05-03T05:38:27.475Z,101211.23
2019-05-03T05:40:57.665Z,101214.65
2019-05-03T05:43:27.851Z,101210.97
2019-05-03T05:45:58.975Z,101211.46
2019-05-03T05:48:35.022Z,101212.31
2019-05-03T05:51:04.640Z,101215.99
2019-05-03T05:53:37.609Z,101224.96
2019-05-03T05:56:25.127Z,101235.33
2019-05-03T05:59:24.773Z,101231.70
2019-05-03T06:02:10.767Z,101242.55
2019-05-03T06:04:41.371Z,101238.17
2019-05-03T06:07:39.035Z,101232.65
2019-05-03T06:10:29.834Z,101234.23
2019-05-03T06:13:27.099Z,101233.83
2019-05-03T06:19:31.521Z,101244.27
2019-05-03T06:22:17.506Z,101241.53
2019-05-03T06:24:54.338Z,101249.09
2019-05-03T06:27:30.353Z,101253.34
2019-05-03T06:30:07.719Z,101263.09
2019-05-03T06:32:50.684Z,101263.09
2019-05-03T06:35:24.273Z,101265.43
2019-05-03T06:37:58.439Z,101267.52
2019-05-03T06:43:24.584Z,101280.57
2019-05-03T06:46:49.948Z,101280.72
2019-05-03T06:49:19.381Z,101285.95
2019-05-03T06:51:50.850Z,101282.11
2019-05-03T06:54:26.625Z,101279.91
2019-05-03T06:57:00.091Z,101281.85
2019-05-03T06:59:39.544Z,101273.84
2019-05-03T07:02:30.613Z,101279.41
2019-05-03T07:05:12.231Z,101280.14
2019-05-03T07:13:22.279Z,101276.15
2019-05-03T07:16:35.392Z,101278.69
2019-05-03T07:19:14.909Z,101278.28
2019-05-03T07:21:55.662Z,101273.17
2019-05-03T07:27:08.205Z,101271.16
2019-05-03T07:30:00.879Z,101271.44
2019-05-03T07:32:31.499Z,101278.72
2019-05-03T07:35:02.044Z,101268.84
2019-05-03T07:37:34.749Z,101267.36
2019-05-03T07:40:05.083Z,101265.98
2019-05-03T07:42:37.046Z,101263.98
2019-05-03T07:45:08.071Z,101254.48
2019-05-03T07:47:40.709Z,101245.06
2019-05-03T07:50:10.568Z,101245.48
2019-05-03T07:52:42.542Z,101253.91
2019-05-03T07:55:12.250Z,101247.56
2019-05-03T07:57:55.753Z,101242.17
2019-05-03T08:00:28.160Z,101242.88
2019-05-03T08:02:58.926Z,101236.56
2019-05-03T08:05:29.421Z,101240.81
2019-05-03T08:08:06.735Z,101233.98
2019-05-03T08:10:45.165Z,101228.61
2019-05-03T08:13:15.347Z,101228.48
2019-05-03T08:15:45.415Z,101229.38
2019-05-03T08:18:18.088Z,101219.94
2019-05-03T08:20:50.796Z,101223.22
2019-05-03T08:23:30.493Z,101221.31
2019-05-03T08:26:06.230Z,101221.20
2019-05-03T08:28:54.459Z,101227.91
2019-05-03T08:31:46.355Z,101222.59
2019-05-03T08:34:30.208Z,101217.64
2019-05-03T08:37:18.519Z,101227.01
2019-05-03T08:41:02.167Z,101231.08
2019-05-03T08:52:59.325Z,101235.22
2019-05-03T08:55:38.378Z,101233.41
2019-05-03T09:21:27.571Z,101228.28
2019-05-03T09:23:57.372Z,101232.83
2019-05-03T09:41:40.715Z,101233.59
2019-05-03T10:01:35.721Z,101241.02
2019-05-03T10:04:22.433Z,101253.33
2019-05-03T10:24:12.095Z,101236.20
2019-05-03T10:57:27.604Z,101217.47
2019-05-03T11:03:15.969Z,101221.23
2019-05-03T11:09:07.419Z,101222.22
2019-05-03T11:11:37.103Z,101231.59
2019-05-03T11:14:15.132Z,101221.06
2019-05-03T11:25:45.854Z,101218.73
2019-05-03T11:32:08.228Z,101215.25
2019-05-03T11:41:32.158Z,101219.62
2019-05-03T11:44:17.669Z,101230.97
2019-05-03T11:46:47.128Z,101224.92
2019-05-03T11:51:55.824Z,101219.79
2019-05-03T11:54:32.600Z,101213.71
2019-05-03T11:59:49.799Z,101210.28
2019-05-03T12:05:28.998Z,101227.78
2019-05-03T12:11:25.058Z,101226.89
2019-05-03T12:14:27.528Z,101214.02
2019-05-03T12:17:17.846Z,101231.09
2019-05-03T12:22:18.522Z,101233.28
2019-05-03T12:24:52.561Z,101237.33
2019-05-03T12:27:24.337Z,101242.39
2019-05-03T12:33:05.677Z,101236.02
2019-05-03T12:36:16.439Z,101243.69
2019-05-03T12:39:23.148Z,101241.83
2019-05-03T12:42:07.680Z,101243.22
2019-05-03T12:44:59.541Z,101239.27
2019-05-03T12:53:25.353Z,101241.60
2019-05-03T12:56:23.196Z,101235.13
2019-05-03T13:04:26.701Z,101262.73
2019-05-03T13:07:20.249Z,101255.22
2019-05-03T13:12:34.855Z,101245.98
2019-05-03T13:17:44.596Z,101244.28
2019-05-03T13:23:00.522Z,101228.57
2019-05-03T13:25:30.145Z,101223.70
2019-05-03T13:27:59.640Z,101219.84
2019-05-03T13:30:35.400Z,101207.17
2019-05-03T13:33:29.879Z,101207.56
2019-05-03T13:35:59.470Z,101212.41
2019-05-03T13:38:35.955Z,101228.65
2019-05-03T13:41:12.817Z,101230.84
2019-05-03T13:44:05.169Z,101239.65
2019-05-03T13:49:39.614Z,101226.87
2019-05-03T13:52:16.486Z,101220.23
2019-05-03T13:54:47.868Z,101210.13
2019-05-03T13:57:17.458Z,101207.08
2019-05-03T13:59:55.481Z,101201.94
2019-05-03T14:05:17.418Z,101182.48
2019-05-03T14:08:04.807Z,101184.70
2019-05-03T14:10:51.467Z,101181.48
2019-05-03T14:13:44.548Z,101193.95
2019-05-03T14:59:09.091Z,101167.41
2019-05-03T15:05:30.364Z,101167.91
2019-05-03T15:10:56.221Z,101179.86
2019-05-03T15:13:38.770Z,101182.66
2019-05-03T15:16:09.837Z,101175.81
2019-05-03T15:19:00.692Z,101180.81
2019-05-03T15:24:58.924Z,101165.72
2019-05-03T15:27:35.277Z,101168.08
2019-05-03T15:30:05.257Z,101174.20
2019-05-03T15:32:35.361Z,101174.80
2019-05-03T15:35:11.283Z,101178.04
2019-05-03T15:37:45.537Z,101189.41
2019-05-03T15:49:04.585Z,101174.56
2019-05-03T15:51:53.941Z,101183.08
2019-05-03T15:56:58.711Z,101170.89
2019-05-03T15:59:28.241Z,101174.59
2019-05-03T16:01:59.640Z,101172.80
2019-05-03T16:04:30.547Z,101172.52
2019-05-03T16:07:14.956Z,101180.38
2019-05-03T16:12:54.491Z,101165.28
2019-05-03T16:15:29.961Z,101146.20
2019-05-03T16:17:59.347Z,101149.75
2019-05-03T16:20:29.740Z,101158.58
2019-05-03T16:22:59.403Z,101157.96
2019-05-03T16:25:28.957Z,101156.95
2019-05-03T16:28:15.916Z,101151.37
2019-05-03T16:30:56.127Z,101151.75
2019-05-03T16:33:28.370Z,101152.14
2019-05-03T16:35:59.046Z,101156.27
2019-05-03T16:38:37.622Z,101148.30
2019-05-03T16:41:29.341Z,101144.00
2019-05-03T16:46:52.985Z,101138.62
2019-05-03T16:49:25.861Z,101148.21
2019-05-03T16:51:58.148Z,101135.55
2019-05-03T16:54:35.841Z,101144.99
2019-05-03T16:57:05.880Z,101140.44
2019-05-03T16:59:59.048Z,101143.94
2019-05-03T17:05:29.135Z,101130.68
2019-05-03T17:08:20.918Z,101127.12
2019-05-03T17:11:09.374Z,101133.00
2019-05-03T17:13:55.076Z,101114.91
2019-05-03T17:16:26.750Z,101116.13
2019-05-03T17:18:58.702Z,101107.66
2019-05-03T17:21:30.684Z,101115.96
2019-05-03T17:24:19.030Z,101108.84
2019-05-03T17:27:00.257Z,101112.56
2019-05-03T17:29:58.207Z,101124.75
2019-05-03T17:32:29.603Z,101125.44
2019-05-03T17:35:40.275Z,101130.03
2019-05-03T17:38:20.980Z,101117.14
2019-05-03T17:44:34.574Z,101133.05
2019-05-03T17:47:25.587Z,101139.66
2019-05-03T17:52:54.492Z,101124.91
2019-05-03T17:55:49.453Z,101128.27
2019-05-03T17:59:08.463Z,101131.02
2019-05-03T18:02:22.457Z,101122.89
2019-05-03T18:05:25.010Z,101131.38
2019-05-03T18:08:55.100Z,101124.94
2019-05-03T18:11:52.225Z,101123.50
2019-05-03T18:14:44.910Z,101126.48
2019-05-03T18:17:18.288Z,101138.33
2019-05-03T18:20:07.195Z,101140.06
2019-05-03T18:22:36.945Z,101137.33
2019-05-03T18:25:09.144Z,101144.05
2019-05-03T18:27:38.804Z,101147.75
2019-05-03T18:30:10.002Z,101146.53
2019-05-03T18:32:40.478Z,101151.52
2019-05-03T18:35:12.712Z,101146.06
2019-05-03T18:37:43.040Z,101140.12
2019-05-03T18:40:12.787Z,101145.29
2019-05-03T18:43:02.319Z,101146.43
2019-05-03T18:46:05.937Z,101139.86
2019-05-03T18:48:35.516Z,101132.22
2019-05-03T18:51:05.445Z,101142.66
2019-05-03T18:53:35.131Z,101142.20
2019-05-03T18:56:06.374Z,101155.36
2019-05-03T18:58:40.412Z,101141.95
2019-05-03T19:01:10.061Z,101147.27
2019-05-03T19:03:42.962Z,101144.98
2019-05-03T19:06:12.933Z,101142.29
2019-05-03T19:09:09.229Z,101147.54
2019-05-03T19:11:46.177Z,101149.58
2019-05-03T19:14:18.017Z,101146.73
2019-05-03T19:17:15.338Z,101144.88
2019-05-03T19:20:04.854Z,101149.63
2019-05-03T19:22:34.640Z,101143.52
2019-05-03T19:25:04.048Z,101142.05
2019-05-03T19:27:34.659Z,101139.66
2019-05-03T19:30:04.732Z,101135.77
2019-05-03T19:32:35.797Z,101141.13
2019-05-03T19:35:06.209Z,101140.70
2019-05-03T19:37:35.719Z,101147.81
2019-05-03T19:40:06.620Z,101148.14
2019-05-03T19:42:36.241Z,101145.00
2019-05-03T19:45:06.508Z,101141.02
2019-05-03T19:47:35.856Z,101143.73
2019-05-03T19:50:05.802Z,101142.32
2019-05-03T19:52:45.392Z,101131.18
2019-05-03T19:55:15.432Z,101136.57
2019-05-03T19:57:45.008Z,101134.43
2019-05-03T20:00:16.285Z,101136.81
2019-05-03T20:02:58.421Z,101140.39
2019-05-03T20:05:53.784Z,101143.02
2019-05-03T20:08:36.414Z,101133.66
2019-05-03T20:11:25.664Z,101127.95
2019-05-03T20:14:09.439Z,101133.01
2019-05-03T20:16:39.758Z,101124.89
2019-05-03T20:25:29.185Z,101131.67
2019-05-03T20:28:24.750Z,101134.45
2019-05-03T20:31:59.804Z,101128.91
2019-05-03T20:40:47.831Z,101137.09
2019-05-03T20:57:24.702Z,101143.86
2019-05-03T21:21:00.562Z,101152.78
2019-05-03T21:32:28.521Z,101154.16
2019-05-03T21:38:04.756Z,101160.24
2019-05-03T21:40:59.409Z,101168.53
2019-05-03T21:43:29.300Z,101165.72
2019-05-03T21:46:09.404Z,101165.47
2019-05-03T21:48:57.866Z,101167.30
2019-05-03T21:51:34.628Z,101163.04
2019-05-03T21:54:06.758Z,101170.96
2019-05-03T21:56:37.762Z,101173.64
2019-05-03T21:59:10.664Z,101164.52
2019-05-03T22:01:48.209Z,101159.30
2019-05-03T22:04:19.123Z,101159.30
2019-05-03T22:06:54.884Z,101160.98
2019-05-03T22:09:34.833Z,101165.72
2019-05-03T22:12:05.363Z,101159.87
2019-05-03T22:14:45.408Z,101158.41
2019-05-03T22:17:52.647Z,101163.67
2019-05-03T22:20:35.062Z,101158.31
2019-05-03T22:23:37.561Z,101161.36
2019-05-03T22:26:15.480Z,101164.02
2019-05-03T22:28:45.946Z,101157.95
2019-05-03T22:31:19.851Z,101162.69
2019-05-03T22:33:49.633Z,101157.44
2019-05-03T22:36:19.459Z,101163.40
2019-05-03T22:38:50.351Z,101159.16
2019-05-03T22:41:20.139Z,101157.46
2019-05-03T22:43:55.181Z,101151.71
2019-05-03T22:46:33.251Z,101152.13
2019-05-03T22:49:07.506Z,101150.78
2019-05-03T22:54:31.049Z,101158.58
2019-05-03T22:57:01.310Z,101161.98
2019-05-03T22:59:34.762Z,101159.08
2019-05-03T23:02:04.825Z,101158.09
2019-05-03T23:04:36.651Z,101165.39
2019-05-03T23:07:14.919Z,101174.28
2019-05-03T23:09:54.304Z,101163.45
2019-05-03T23:12:24.708Z,101174.40
2019-05-03T23:14:55.891Z,101171.70
2019-05-03T23:17:26.171Z,101167.09
2019-05-03T23:20:01.211Z,101168.20
2019-05-03T23:22:32.203Z,101161.85
2019-05-03T23:25:01.847Z,101160.75
2019-05-03T23:27:35.244Z,101161.87
2019-05-03T23:30:11.882Z,101165.14
2019-05-03T23:32:42.520Z,101160.51
2019-05-03T23:35:12.309Z,101159.06
2019-05-03T23:37:44.901Z,101160.80
2019-05-03T23:40:15.713Z,101160.77
2019-05-03T23:42:45.659Z,101166.63
2019-05-03T23:45:15.676Z,101166.77
2019-05-03T23:47:47.561Z,101163.73
2019-05-03T23:50:19.516Z,101168.11
2019-05-03T23:52:54.773Z,101174.05
2019-05-03T23:55:47.794Z,101173.69
2019-05-03T23:58:17.506Z,101171.63
